Time;durP1;ratioP1;P1;durP2;ratioP2;P2;SDS_P1;SDS_P2;PMS_P1;PMS_P2;Temp;Humidity;BMP_temperature;BMP_pressure;BME280_temperature;BME280_humidity;BME280_pressure;Samples;Min_cycle;Max_cycle;Signal;HPM_P1;HPM_P2
2022/03/23 00:01:02;;;;;;;;;;;;;;;;;;5013013;28;19905;-59
2022/03/23 00:03:28;;;;;;;;;;;;;;;;;;5012772;28;19921;-59
2022/03/23 00:05:54;;;;;;;;;;;;;;;;;;5012945;28;19988;-59
2022/03/23 00:08:21;;;;;;;;;;;;;;;;;;5012826;28;19963;-59
2022/03/23 00:10:48;;;;;;;;;;;;;;;;;;5013144;28;19928;-59
2022/03/23 00:13:13;;;;;;;;;;;;;;;;;;5013147;28;19905;-59
2022/03/23 00:15:39;;;;;;;;;;;;;;;;;;5012877;28;20412;-59
2022/03/23 00:18:06;;;;;;;;;;;;;;;;;;5012901;28;19911;-59
2022/03/23 00:20:32;;;;;;;;;;;;;;;;;;5012807;28;19917;-59
2022/03/23 00:22:58;;;;;;;;;;;;;;;;;;5012721;28;20287;-59
2022/03/23 00:25:24;;;;;;;;;;;;;;;;;;5012786;28;20000;-59
2022/03/23 00:27:49;;;;;;;;;;;;;;;;;;5012699;28;19985;-59
2022/03/23 00:30:15;;;;;;;;;;;;;;;;;;5012733;28;20396;-59
2022/03/23 00:32:41;;;;;;;;;;;;;;;;;;5012681;28;19913;-58
2022/03/23 00:35:07;;;;;;;;;;;;;;;;;;5012790;28;19905;-59
2022/03/23 00:37:33;;;;;;;;;;;;;;;;;;5012680;28;19905;-59
2022/03/23 00:39:59;;;;;;;;;;;;;;;;;;5012629;28;19943;-59
2022/03/23 00:42:25;;;;;;;;;;;;;;;;;;5012558;28;19913;-59
2022/03/23 00:44:51;;;;;;;;;;;;;;;;;;5012548;28;20004;-59
2022/03/23 00:47:17;;;;;;;;;;;;;;;;;;5013968;28;19905;-59
2022/03/23 00:49:43;;;;;;;;;;;;;;;;;;5016473;28;20319;-59
2022/03/23 00:52:10;;;;;;;;;;;;;;;;;;5016413;28;19905;-59
2022/03/23 00:54:36;;;;;;;;;;;;;;;;;;5016504;28;20283;-59
2022/03/23 00:57:02;;;;;;;;;;;;;;;;;;5016252;28;19906;-59
2022/03/23 00:59:28;;;;;;;;;;;;;;;;;;5016218;28;19905;-59
2022/03/23 01:01:54;;;;;;;;;;;;;;;;;;5015909;28;19924;-59
2022/03/23 01:04:20;;;;;;;;;;;;;;;;;;5016136;28;20012;-59
2022/03/23 01:06:45;;;;;;;;;;;;;;;;;;5016147;28;20349;-59
2022/03/23 01:09:11;;;;;;;;;;;;;;;;;;5015980;28;20009;-59
2022/03/23 01:11:37;;;;;;;;;;;;;;;;;;5015967;28;19906;-59
2022/03/23 01:14:03;;;;;;;;;;;;;;;;;;5015829;28;19948;-59
2022/03/23 01:16:29;;;;;;;;;;;;;;;;;;5015762;28;19906;-59
2022/03/23 01:18:55;;;;;;;;;;;;;;;;;;5015700;28;19909;-59
2022/03/23 01:21:21;;;;;;;;;;;;;;;;;;5015669;28;19906;-59
2022/03/23 01:23:47;;;;;;;;;;;;;;;;;;5015615;28;19982;-59
2022/03/23 01:26:13;;;;;;;;;;;;;;;;;;5015670;28;19998;-59
2022/03/23 01:28:39;;;;;;;;;;;;;;;;;;5015600;28;19905;-59
2022/03/23 01:31:05;;;;;;;;;;;;;;;;;;5015682;28;19912;-59
2022/03/23 01:33:31;;;;;;;;;;;;;;;;;;5015762;28;19905;-59
2022/03/23 01:35:57;;;;;;;;;;;;;;;;;;5015529;28;20356;-59
2022/03/23 01:38:23;;;;;;;;;;;;;;;;;;5015299;28;19905;-59
2022/03/23 01:40:49;;;;;;;;;;;;;;;;;;5015393;28;20008;-59
2022/03/23 01:43:15;;;;;;;;;;;;;;;;;;5015215;28;19914;-59
2022/03/23 01:45:41;;;;;;;;;;;;;;;;;;5015251;28;19906;-59
2022/03/23 01:48:07;;;;;;;;;;;;;;;;;;5015362;28;19955;-59
2022/03/23 01:50:32;;;;;;;;;;;;;;;;;;5015171;28;19958;-47
2022/03/23 01:52:58;;;;;;;;;;;;;;;;;;5015173;28;19905;-46
2022/03/23 01:55:24;;;;;;;;;;;;;;;;;;5015350;28;20392;-46
2022/03/23 01:57:51;;;;;;;;;;;;;;;;;;5014926;28;19921;-48
2022/03/23 02:00:17;;;;;;;;;;;;;;;;;;5014006;28;20386;-47
2022/03/23 02:02:43;;;;;;;;;;;;;;;;;;5014694;28;19921;-46
2022/03/23 02:05:09;;;;;;;;;;;;;;;;;;5014942;28;19940;-47
2022/03/23 02:07:35;;;;;;;;;;;;;;;;;;5014964;28;19911;-46
2022/03/23 02:10:01;;;;;;;;;;;;;;;;;;5015042;28;19909;-46
2022/03/23 02:12:30;;;;;;;;;;;;;;;;;;5014915;28;20370;-46
2022/03/23 02:14:56;;;;;;;;;;;;;;;;;;5014679;28;19977;-46
2022/03/23 02:17:22;;;;;;;;;;;;;;;;;;5014659;28;19952;-47
2022/03/23 02:19:48;;;;;;;;;;;;;;;;;;5014694;28;19980;-46
2022/03/23 02:22:14;;;;;;;;;;;;;;;;;;5014510;28;19909;-46
2022/03/23 02:24:40;;;;;;;;;;;;;;;;;;5014509;28;19925;-47
2022/03/23 02:27:06;;;;;;;;;;;;;;;;;;5014530;28;20282;-46
2022/03/23 02:29:32;;;;;;;;;;;;;;;;;;5014386;28;19905;-46
2022/03/23 02:31:58;;;;;;;;;;;;;;;;;;5014383;28;19905;-46
2022/03/23 02:34:26;;;;;;;;;;;;;;;;;;5014383;28;20368;-46
2022/03/23 02:36:52;;;;;;;;;;;;;;;;;;5014282;28;19979;-47
2022/03/23 02:39:18;;;;;;;;;;;;;;;;;;5014511;28;19980;-47
2022/03/23 02:41:45;;;;;;;;;;;;;;;;;;5014249;28;19992;-46
2022/03/23 02:44:10;;;;;;;;;;;;;;;;;;5014407;28;19947;-46
2022/03/23 02:46:36;;;;;;;;;;;;;;;;;;5014175;28;19996;-46
2022/03/23 02:49:03;;;;;;;;;;;;;;;;;;5014174;28;19905;-46
2022/03/23 02:51:29;;;;;;;;;;;;;;;;;;5014032;28;19944;-46
2022/03/23 03:02:08;;;;;;;;;;;;;;;;;;5013631;28;19932;-46
2022/03/23 03:04:34;;;;;;;;;;;;;;;;;;5013783;28;20364;-47
2022/03/23 03:07:00;;;;;;;;;;;;;;;;;;5014044;28;19913;-46
2022/03/23 03:09:26;;;;;;;;;;;;;;;;;;5013607;28;19905;-46
2022/03/23 03:11:52;;;;;;;;;;;;;;;;;;5013578;28;19906;-46
2022/03/23 03:14:18;;;;;;;;;;;;;;;;;;5013853;28;20004;-46
2022/03/23 03:16:44;;;;;;;;;;;;;;;;;;5013754;28;19913;-47
2022/03/23 03:19:11;;;;;;;;;;;;;;;;;;5013632;28;20228;-46
2022/03/23 03:21:37;;;;;;;;;;;;;;;;;;5013619;28;19912;-47
2022/03/23 03:24:03;;;;;;;;;;;;;;;;;;5013336;28;19913;-47
2022/03/23 03:26:30;;;;;;;;;;;;;;;;;;5013346;28;19905;-46
2022/03/23 03:28:56;;;;;;;;;;;;;;;;;;5013282;28;19949;-46
2022/03/23 03:31:22;;;;;;;;;;;;;;;;;;5013435;28;20391;-47
2022/03/23 03:33:48;;;;;;;;;;;;;;;;;;5013243;28;19906;-46
2022/03/23 03:36:15;;;;;;;;;;;;;;;;;;5013257;28;19906;-47
2022/03/23 03:38:41;;;;;;;;;;;;;;;;;;5013583;28;19905;-47
2022/03/23 03:41:06;;;;;;;;;;;;;;;;;;5013528;28;20276;-46
2022/03/23 03:43:32;;;;;;;;;;;;;;;;;;5013321;28;19913;-46
2022/03/23 03:45:58;;;;;;;;;;;;;;;;;;5013028;28;19913;-48
2022/03/23 03:48:24;;;;;;;;;;;;;;;;;;5013088;28;20004;-47
2022/03/23 03:50:50;;;;;;;;;;;;;;;;;;5013049;28;19916;-46
2022/03/23 03:53:16;;;;;;;;;;;;;;;;;;5013090;28;19909;-47
2022/03/23 03:55:42;;;;;;;;;;;;;;;;;;5012908;28;20352;-47
2022/03/23 03:58:12;;;;;;;;;;;;;;;;;;5012998;28;19928;-47
2022/03/23 04:00:38;;;;;;;;;;;;;;;;;;5012936;28;19913;-47
2022/03/23 04:03:04;;;;;;;;;;;;;;;;;;5012467;28;19917;-46
2022/03/23 04:05:30;;;;;;;;;;;;;;;;;;5012924;28;19916;-47
2022/03/23 04:07:56;;;;;;;;;;;;;;;;;;5012746;28;19905;-47
2022/03/23 04:10:23;;;;;;;;;;;;;;;;;;5013131;28;20008;-46
2022/03/23 04:12:48;;;;;;;;;;;;;;;;;;5013143;28;19921;-47
2022/03/23 04:15:15;;;;;;;;;;;;;;;;;;5012910;28;20372;-47
2022/03/23 04:17:41;;;;;;;;;;;;;;;;;;5012947;28;20438;-47
2022/03/23 04:20:07;;;;;;;;;;;;;;;;;;5012727;28;19905;-47
2022/03/23 04:22:33;;;;;;;;;;;;;;;;;;5014379;28;19909;-46
2022/03/23 04:24:59;;;;;;;;;;;;;;;;;;5016810;28;19909;-46
2022/03/23 04:27:25;;;;;;;;;;;;;;;;;;5016785;28;20332;-46
2022/03/23 04:29:51;;;;;;;;;;;;;;;;;;5016767;28;19912;-47
2022/03/23 04:32:16;;;;;;;;;;;;;;;;;;5016713;28;20172;-46
2022/03/23 04:34:42;;;;;;;;;;;;;;;;;;5016766;28;19905;-47
2022/03/23 04:37:08;;;;;;;;;;;;;;;;;;5016543;28;19913;-47
2022/03/23 04:39:34;;;;;;;;;;;;;;;;;;5016650;28;19988;-47
2022/03/23 04:42:00;;;;;;;;;;;;;;;;;;5016384;28;20367;-47
2022/03/23 04:44:26;;;;;;;;;;;;;;;;;;5016796;28;19956;-46
2022/03/23 04:46:52;;;;;;;;;;;;;;;;;;5016506;28;20003;-47
2022/03/23 04:49:18;;;;;;;;;;;;;;;;;;5016528;28;20276;-47
2022/03/23 04:51:44;;;;;;;;;;;;;;;;;;5016424;28;19906;-47
2022/03/23 04:54:10;;;;;;;;;;;;;;;;;;5016306;28;19979;-47
2022/03/23 04:56:36;;;;;;;;;;;;;;;;;;5016284;28;19913;-47
2022/03/23 04:59:02;;;;;;;;;;;;;;;;;;5016107;28;20327;-47
2022/03/23 05:01:27;;;;;;;;;;;;;;;;;;5016423;28;19905;-47
2022/03/23 05:03:53;;;;;;;;;;;;;;;;;;5015863;28;19924;-47
2022/03/23 05:06:19;;;;;;;;;;;;;;;;;;5016078;28;19905;-47
2022/03/23 05:08:45;;;;;;;;;;;;;;;;;;5016047;28;20368;-47
2022/03/23 05:11:11;;;;;;;;;;;;;;;;;;5016017;28;19988;-47
2022/03/23 05:13:37;;;;;;;;;;;;;;;;;;5015907;28;19912;-48
2022/03/23 05:16:03;;;;;;;;;;;;;;;;;;5016117;28;19906;-47
2022/03/23 05:18:29;;;;;;;;;;;;;;;;;;5015960;28;19905;-47
2022/03/23 05:20:55;;;;;;;;;;;;;;;;;;5016102;28;19913;-47
2022/03/23 05:23:21;;;;;;;;;;;;;;;;;;5015605;28;20011;-47
2022/03/23 05:25:46;;;;;;;;;;;;;;;;;;5015617;28;19929;-46
2022/03/23 05:28:13;;;;;;;;;;;;;;;;;;5015621;28;20021;-47
2022/03/23 05:30:39;;;;;;;;;;;;;;;;;;5015859;28;19913;-46
2022/03/23 05:33:05;;;;;;;;;;;;;;;;;;5015588;28;19905;-47
2022/03/23 05:35:31;;;;;;;;;;;;;;;;;;5015476;28;20360;-48
2022/03/23 05:37:56;;;;;;;;;;;;;;;;;;5015579;28;19949;-47
2022/03/23 05:40:23;;;;;;;;;;;;;;;;;;5015412;28;19906;-48
2022/03/23 05:42:49;;;;;;;;;;;;;;;;;;5015521;28;20016;-48
2022/03/23 05:45:16;;;;;;;;;;;;;;;;;;5015589;28;19940;-47
2022/03/23 05:47:42;;;;;;;;;;;;;;;;;;5015488;28;19913;-47
2022/03/23 05:50:07;;;;;;;;;;;;;;;;;;5015310;28;19906;-47
2022/03/23 05:52:33;;;;;;;;;;;;;;;;;;5015185;28;19981;-47
2022/03/23 05:55:01;;;;;;;;;;;;;;;;;;5015093;28;20015;-48
2022/03/23 05:57:27;;;;;;;;;;;;;;;;;;5015222;28;19959;-47
2022/03/23 05:59:52;;;;;;;;;;;;;;;;;;5015038;28;19936;-47
2022/03/23 06:02:18;;;;;;;;;;;;;;;;;;4996928;28;19917;-47
2022/03/23 06:04:45;;;;;;;;;;;;;;;;;;5014964;28;19928;-47
2022/03/23 06:07:10;;;;;;;;;;;;;;;;;;5014979;28;19948;-47
2022/03/23 06:09:36;;;;;;;;;;;;;;;;;;5015045;28;19937;-47
2022/03/23 06:12:04;;;;;;;;;;;;;;;;;;5014865;28;19905;-46
2022/03/23 06:14:30;;;;;;;;;;;;;;;;;;5015222;28;19975;-48
2022/03/23 06:16:56;;;;;;;;;;;;;;;;;;5015051;28;19944;-48
2022/03/23 06:19:22;;;;;;;;;;;;;;;;;;5014670;28;20340;-48
2022/03/23 06:21:47;;;;;;;;;;;;;;;;;;5014640;28;19905;-47
2022/03/23 06:24:13;;;;;;;;;;;;;;;;;;5014497;28;19940;-47
2022/03/23 06:26:39;;;;;;;;;;;;;;;;;;5014796;28;19905;-48
2022/03/23 06:29:05;;;;;;;;;;;;;;;;;;5014441;28;19996;-49
2022/03/23 06:31:31;;;;;;;;;;;;;;;;;;5014421;28;19929;-46
2022/03/23 06:33:57;;;;;;;;;;;;;;;;;;5014287;28;19905;-46
2022/03/23 06:36:23;;;;;;;;;;;;;;;;;;5014490;28;20283;-46
2022/03/23 06:38:50;;;;;;;;;;;;;;;;;;5014277;28;19912;-46
2022/03/23 06:41:16;;;;;;;;;;;;;;;;;;5014275;28;19960;-48
2022/03/23 06:43:42;;;;;;;;;;;;;;;;;;5014075;28;19917;-47
2022/03/23 06:46:07;;;;;;;;;;;;;;;;;;5013990;28;19995;-47
2022/03/23 06:48:33;;;;;;;;;;;;;;;;;;5014120;28;19905;-47
2022/03/23 06:50:59;;;;;;;;;;;;;;;;;;5014170;28;19919;-47
2022/03/23 06:53:25;;;;;;;;;;;;;;;;;;5014274;28;19912;-48
2022/03/23 06:55:51;;;;;;;;;;;;;;;;;;5014012;28;20356;-47
2022/03/23 06:58:17;;;;;;;;;;;;;;;;;;5014059;28;19912;-48
2022/03/23 07:00:43;;;;;;;;;;;;;;;;;;5014003;28;19921;-46
2022/03/23 07:03:09;;;;;;;;;;;;;;;;;;5013612;28;19917;-46
2022/03/23 07:05:36;;;;;;;;;;;;;;;;;;5013932;28;19906;-46
2022/03/23 07:10:47;;;;;;;;;;;;;;;;;;5013834;28;20533;-47
2022/03/23 07:13:14;;;;;;;;;;;;;;;;;;5013841;28;20168;-47
2022/03/23 07:15:39;;;;;;;;;;;;;;;;;;5013659;28;19909;-47
2022/03/23 07:18:05;;;;;;;;;;;;;;;;;;5013710;28;20395;-46
2022/03/23 07:20:31;;;;;;;;;;;;;;;;;;5013771;28;19905;-47
2022/03/23 07:22:57;;;;;;;;;;;;;;;;;;5013520;28;19920;-46
2022/03/23 07:25:23;;;;;;;;;;;;;;;;;;5013555;28;19905;-46
2022/03/23 07:27:49;;;;;;;;;;;;;;;;;;5013599;28;20423;-46
2022/03/23 07:30:15;;;;;;;;;;;;;;;;;;5013640;28;20009;-47
2022/03/23 07:32:41;;;;;;;;;;;;;;;;;;5013509;28;20446;-46
2022/03/23 07:35:07;;;;;;;;;;;;;;;;;;5013504;28;19912;-46
2022/03/23 07:37:33;;;;;;;;;;;;;;;;;;5013488;28;19952;-47
2022/03/23 07:39:59;;;;;;;;;;;;;;;;;;5013377;28;19905;-47
2022/03/23 07:42:25;;;;;;;;;;;;;;;;;;5013294;28;19913;-49
2022/03/23 07:44:51;;;;;;;;;;;;;;;;;;4995556;28;19916;-47
2022/03/23 07:47:17;;;;;;;;;;;;;;;;;;5013381;28;19952;-48
2022/03/23 07:49:43;;;;;;;;;;;;;;;;;;5013249;28;20364;-47
2022/03/23 07:52:09;;;;;;;;;;;;;;;;;;5013247;28;19967;-48
2022/03/23 07:54:35;;;;;;;;;;;;;;;;;;5013190;28;20359;-47
2022/03/23 07:57:01;;;;;;;;;;;;;;;;;;5012235;28;19913;-47
2022/03/23 07:59:27;;;;;;;;;;;;;;;;;;5013158;28;20291;-48
2022/03/23 08:01:53;;;;;;;;;;;;;;;;;;5012811;28;19905;-46
2022/03/23 08:04:19;;;;;;;;;;;;;;;;;;5013008;28;19921;-48
2022/03/23 08:06:44;;;;;;;;;;;;;;;;;;5013118;28;20531;-47
2022/03/23 08:09:10;;;;;;;;;;;;;;;;;;5013268;28;19909;-48
2022/03/23 08:11:36;;;;;;;;;;;;;;;;;;5013016;28;19906;-48
2022/03/23 08:14:03;;;;;;;;;;;;;;;;;;5012834;28;20260;-48
2022/03/23 08:16:29;;;;;;;;;;;;;;;;;;5012767;28;19944;-48
2022/03/23 08:18:55;;;;;;;;;;;;;;;;;;5012701;28;19991;-49
2022/03/23 08:21:21;;;;;;;;;;;;;;;;;;5012942;28;19921;-48
2022/03/23 08:23:47;;;;;;;;;;;;;;;;;;5012739;28;19914;-47
2022/03/23 08:26:14;;;;;;;;;;;;;;;;;;5012810;28;20190;-48
2022/03/23 08:28:39;;;;;;;;;;;;;;;;;;5013046;28;19905;-47
2022/03/23 08:31:05;;;;;;;;;;;;;;;;;;5012772;28;19932;-47
2022/03/23 08:33:34;;;;;;;;;;;;;;;;;;5012886;28;19944;-48
2022/03/23 08:36:00;;;;;;;;;;;;;;;;;;5012991;28;19909;-47
2022/03/23 08:38:26;;;;;;;;;;;;;;;;;;5013001;28;20327;-47
2022/03/23 08:40:51;;;;;;;;;;;;;;;;;;5012495;28;19952;-48
2022/03/23 08:43:17;;;;;;;;;;;;;;;;;;5012628;28;19929;-47
2022/03/23 08:45:43;;;;;;;;;;;;;;;;;;5012641;28;20364;-47
2022/03/23 08:48:09;;;;;;;;;;;;;;;;;;5012539;28;19911;-48
2022/03/23 08:50:35;;;;;;;;;;;;;;;;;;5012676;28;19905;-47
2022/03/23 08:53:02;;;;;;;;;;;;;;;;;;5012601;28;19968;-47
2022/03/23 08:55:28;;;;;;;;;;;;;;;;;;5012803;28;20066;-47
2022/03/23 08:57:54;;;;;;;;;;;;;;;;;;5012575;28;19910;-48
2022/03/23 09:00:20;;;;;;;;;;;;;;;;;;5012507;28;20395;-48
2022/03/23 09:02:46;;;;;;;;;;;;;;;;;;5012169;28;20368;-48
2022/03/23 09:05:14;;;;;;;;;;;;;;;;;;5012537;28;19941;-47
2022/03/23 09:07:40;;;;;;;;;;;;;;;;;;5012929;28;20012;-48
2022/03/23 09:10:06;;;;;;;;;;;;;;;;;;5016218;28;19995;-47
2022/03/23 09:12:32;;;;;;;;;;;;;;;;;;5015997;28;19906;-48
2022/03/23 09:14:57;;;;;;;;;;;;;;;;;;5016325;28;19928;-48
2022/03/23 09:17:23;;;;;;;;;;;;;;;;;;5016032;28;19932;-48
2022/03/23 09:19:49;;;;;;;;;;;;;;;;;;5015951;28;19996;-47
2022/03/23 09:22:15;;;;;;;;;;;;;;;;;;5015751;28;19912;-47
2022/03/23 09:24:41;;;;;;;;;;;;;;;;;;5015765;28;19906;-46
2022/03/23 09:27:07;;;;;;;;;;;;;;;;;;5015630;28;19955;-48
2022/03/23 09:29:33;;;;;;;;;;;;;;;;;;5015766;28;19905;-47
2022/03/23 09:31:58;;;;;;;;;;;;;;;;;;5015935;28;19906;-47
2022/03/23 09:34:24;;;;;;;;;;;;;;;;;;5015635;28;20406;-46
2022/03/23 09:39:35;;;;;;;;;;;;;;;;;;5015607;28;20375;-47
2022/03/23 09:42:01;;;;;;;;;;;;;;;;;;5015471;28;19906;-47
2022/03/23 09:44:30;;;;;;;;;;;;;;;;;;5015328;28;20049;-46
2022/03/23 09:46:56;;;;;;;;;;;;;;;;;;5015819;28;19905;-47
2022/03/23 09:49:22;;;;;;;;;;;;;;;;;;5015399;28;19913;-48
2022/03/23 09:51:51;;;;;;;;;;;;;;;;;;5015204;28;19913;-46
2022/03/23 09:54:17;;;;;;;;;;;;;;;;;;5015129;28;19905;-47
2022/03/23 09:56:43;;;;;;;;;;;;;;;;;;5015423;28;19912;-47
2022/03/23 09:59:08;;;;;;;;;;;;;;;;;;5014942;28;19945;-47
2022/03/23 10:01:35;;;;;;;;;;;;;;;;;;5014761;28;19905;-47
2022/03/23 10:04:00;;;;;;;;;;;;;;;;;;5015138;28;19923;-47
2022/03/23 10:06:26;;;;;;;;;;;;;;;;;;5014953;28;19988;-47
2022/03/23 10:08:52;;;;;;;;;;;;;;;;;;5014838;28;19932;-47
2022/03/23 10:11:18;;;;;;;;;;;;;;;;;;5014883;28;19948;-47
2022/03/23 10:13:44;;;;;;;;;;;;;;;;;;5014820;28;20376;-47
2022/03/23 10:16:10;;;;;;;;;;;;;;;;;;5014709;28;19959;-47
2022/03/23 10:18:36;;;;;;;;;;;;;;;;;;5014614;28;19968;-47
2022/03/23 10:21:02;;;;;;;;;;;;;;;;;;5013808;28;20391;-47
2022/03/23 10:23:29;;;;;;;;;;;;;;;;;;5014914;28;20360;-46
2022/03/23 10:25:55;;;;;;;;;;;;;;;;;;5014936;28;19933;-47
2022/03/23 10:28:21;;;;;;;;;;;;;;;;;;5014909;28;19905;-47
2022/03/23 10:30:47;;;;;;;;;;;;;;;;;;5014671;28;19906;-47
2022/03/23 10:33:13;;;;;;;;;;;;;;;;;;5014593;28;19906;-47
2022/03/23 10:35:40;;;;;;;;;;;;;;;;;;5014544;28;20392;-49
2022/03/23 10:38:06;;;;;;;;;;;;;;;;;;5014502;28;20374;-47
2022/03/23 10:40:32;;;;;;;;;;;;;;;;;;5014404;28;19905;-47
2022/03/23 10:42:58;;;;;;;;;;;;;;;;;;5014346;28;20402;-47
2022/03/23 10:45:24;;;;;;;;;;;;;;;;;;5014300;28;19912;-47
2022/03/23 10:47:49;;;;;;;;;;;;;;;;;;5014263;28;20489;-46
2022/03/23 10:50:15;;;;;;;;;;;;;;;;;;5014303;28;19949;-47
2022/03/23 10:52:41;;;;;;;;;;;;;;;;;;4996574;28;19905;-47
2022/03/23 10:55:07;;;;;;;;;;;;;;;;;;5014173;28;20411;-47
2022/03/23 10:57:33;;;;;;;;;;;;;;;;;;5014072;28;19909;-47
2022/03/23 10:59:59;;;;;;;;;;;;;;;;;;4996454;28;19905;-48
2022/03/23 11:02:25;;;;;;;;;;;;;;;;;;5013788;28;19924;-47
2022/03/23 11:04:53;;;;;;;;;;;;;;;;;;5013632;28;19984;-47
2022/03/23 11:07:19;;;;;;;;;;;;;;;;;;5013681;28;19906;-47
2022/03/23 11:17:58;;;;;;;;;;;;;;;;;;5013613;28;19956;-48
2022/03/23 11:20:24;;;;;;;;;;;;;;;;;;5013795;28;19905;-58
2022/03/23 11:22:51;;;;;;;;;;;;;;;;;;5013526;28;19924;-59
2022/03/23 11:25:17;;;;;;;;;;;;;;;;;;5013561;28;20418;-58
2022/03/23 11:27:43;;;;;;;;;;;;;;;;;;5013577;28;20079;-58
2022/03/23 11:30:08;;;;;;;;;;;;;;;;;;5013594;28;20012;-58
2022/03/23 11:32:37;;;;;;;;;;;;;;;;;;5013321;28;19905;-59
2022/03/23 11:35:03;;;;;;;;;;;;;;;;;;5013743;28;20068;-59
2022/03/23 11:37:29;;;;;;;;;;;;;;;;;;5013527;28;20052;-58
2022/03/23 11:39:55;;;;;;;;;;;;;;;;;;5013289;28;19905;-48
2022/03/23 11:42:22;;;;;;;;;;;;;;;;;;5013230;28;19913;-48
2022/03/23 11:44:47;;;;;;;;;;;;;;;;;;5013142;28;19910;-49
2022/03/23 11:47:14;;;;;;;;;;;;;;;;;;5013142;28;20000;-48
2022/03/23 11:49:40;;;;;;;;;;;;;;;;;;5012913;28;19916;-47
2022/03/23 11:52:06;;;;;;;;;;;;;;;;;;5013189;28;20307;-46
2022/03/23 11:55:37;;;;;;;;;;;;;;;;;;5013478;28;19988;-48
2022/03/23 11:57:18;;;;;;;;;;;;;;;;;;5013054;28;19932;-47
2022/03/23 11:59:45;;;;;;;;;;;;;;;;;;5013121;28;19905;-47
2022/03/23 12:02:11;;;;;;;;;;;;;;;;;;5012614;28;19924;-49
2022/03/23 12:04:37;;;;;;;;;;;;;;;;;;5012651;28;19917;-47
2022/03/23 12:07:03;;;;;;;;;;;;;;;;;;5012773;28;19906;-48
2022/03/23 12:09:29;;;;;;;;;;;;;;;;;;5012741;28;19912;-48
2022/03/23 12:11:54;;;;;;;;;;;;;;;;;;5012883;28;20004;-47
2022/03/23 12:14:20;;;;;;;;;;;;;;;;;;5012951;28;20330;-48
2022/03/23 12:16:46;;;;;;;;;;;;;;;;;;5012888;28;19906;-48
2022/03/23 12:19:12;;;;;;;;;;;;;;;;;;5012615;28;19912;-48
2022/03/23 12:21:38;;;;;;;;;;;;;;;;;;5012665;28;19905;-47
2022/03/23 12:24:04;;;;;;;;;;;;;;;;;;5012405;28;19913;-47
2022/03/23 12:26:30;;;;;;;;;;;;;;;;;;5012693;28;19993;-48
2022/03/23 12:28:55;;;;;;;;;;;;;;;;;;5012641;28;19906;-48
2022/03/23 12:31:21;;;;;;;;;;;;;;;;;;5012698;28;20390;-48
2022/03/23 12:33:47;;;;;;;;;;;;;;;;;;5012831;28;19905;-48
2022/03/23 12:36:13;;;;;;;;;;;;;;;;;;5012668;28;20376;-47
2022/03/23 12:38:39;;;;;;;;;;;;;;;;;;5012707;28;19996;-48
2022/03/23 12:41:05;;;;;;;;;;;;;;;;;;5012696;28;19905;-48
2022/03/23 12:43:31;;;;;;;;;;;;;;;;;;5014282;28;19954;-48
2022/03/23 12:45:57;;;;;;;;;;;;;;;;;;5016658;28;20340;-48
2022/03/23 12:59:21;;;;;;;;;;;;;;;;;;5016168;28;20388;-47
2022/03/23 13:01:47;;;;;;;;;;;;;;;;;;5015889;28;19910;-49
2022/03/23 13:04:13;;;;;;;;;;;;;;;;;;4998416;28;20346;-48
2022/03/23 13:06:39;;;;;;;;;;;;;;;;;;5016099;28;19912;-49
2022/03/23 13:09:05;;;;;;;;;;;;;;;;;;5015972;28;20310;-48
2022/03/23 13:11:32;;;;;;;;;;;;;;;;;;5016040;28;19929;-49
2022/03/23 13:13:58;;;;;;;;;;;;;;;;;;5015958;28;19940;-46
2022/03/23 13:16:24;;;;;;;;;;;;;;;;;;5015826;28;20024;-46
2022/03/23 13:18:50;;;;;;;;;;;;;;;;;;5015831;28;20280;-46
2022/03/23 13:21:17;;;;;;;;;;;;;;;;;;5015584;28;19905;-48
2022/03/23 13:23:43;;;;;;;;;;;;;;;;;;5015588;28;19917;-47
2022/03/23 13:26:09;;;;;;;;;;;;;;;;;;5015717;28;19988;-47
2022/03/23 13:28:35;;;;;;;;;;;;;;;;;;5015674;28;19945;-47
2022/03/23 13:31:01;;;;;;;;;;;;;;;;;;5015552;28;19909;-47
2022/03/23 13:33:29;;;;;;;;;;;;;;;;;;5015474;28;19913;-48
2022/03/23 13:35:55;;;;;;;;;;;;;;;;;;5015506;28;19911;-48
2022/03/23 13:38:21;;;;;;;;;;;;;;;;;;5015736;28;20007;-47
2022/03/23 13:43:35;;;;;;;;;;;;;;;;;;5015700;28;19921;-47
2022/03/23 13:46:01;;;;;;;;;;;;;;;;;;5015539;28;19916;-48
2022/03/23 13:48:30;;;;;;;;;;;;;;;;;;5015621;28;19906;-47
2022/03/23 13:50:56;;;;;;;;;;;;;;;;;;5015554;28;19905;-46
2022/03/23 13:53:22;;;;;;;;;;;;;;;;;;5015347;28;19927;-46
2022/03/23 13:55:48;;;;;;;;;;;;;;;;;;5013821;28;20374;-48
2022/03/23 13:58:16;;;;;;;;;;;;;;;;;;5015041;28;19905;-47
2022/03/23 14:00:42;;;;;;;;;;;;;;;;;;5015089;28;20360;-47
2022/03/23 14:03:08;;;;;;;;;;;;;;;;;;5014711;28;19917;-46
2022/03/23 14:05:34;;;;;;;;;;;;;;;;;;5014833;28;20433;-47
2022/03/23 14:08:00;;;;;;;;;;;;;;;;;;5014917;28;19916;-46
2022/03/23 14:10:26;;;;;;;;;;;;;;;;;;5014941;28;19968;-48
2022/03/23 14:12:52;;;;;;;;;;;;;;;;;;5014831;28;19949;-48
2022/03/23 14:15:18;;;;;;;;;;;;;;;;;;5014744;28;20356;-47
2022/03/23 14:17:44;;;;;;;;;;;;;;;;;;5014839;28;19959;-47
2022/03/23 14:20:09;;;;;;;;;;;;;;;;;;5014757;28;20351;-48
2022/03/23 14:22:35;;;;;;;;;;;;;;;;;;5014649;28;19960;-47
2022/03/23 14:25:02;;;;;;;;;;;;;;;;;;5014604;28;19905;-47
2022/03/23 14:27:28;;;;;;;;;;;;;;;;;;5014553;28;20279;-47
2022/03/23 14:29:54;;;;;;;;;;;;;;;;;;5014534;28;19910;-48
2022/03/23 14:32:21;;;;;;;;;;;;;;;;;;5014523;28;19909;-48
2022/03/23 14:34:47;;;;;;;;;;;;;;;;;;5014432;28;20320;-48
2022/03/23 14:37:13;;;;;;;;;;;;;;;;;;5014405;28;19933;-48
2022/03/23 14:39:39;;;;;;;;;;;;;;;;;;5014472;28;20367;-47
2022/03/23 14:42:05;;;;;;;;;;;;;;;;;;5014447;28;19905;-47
2022/03/23 14:44:34;;;;;;;;;;;;;;;;;;5014223;28;19913;-48
2022/03/23 14:47:00;;;;;;;;;;;;;;;;;;5014537;28;20325;-48
2022/03/23 14:49:26;;;;;;;;;;;;;;;;;;5014247;28;19992;-47
2022/03/23 14:51:53;;;;;;;;;;;;;;;;;;5014165;28;19912;-48
2022/03/23 14:54:20;;;;;;;;;;;;;;;;;;5014405;28;19905;-48
2022/03/23 14:56:49;;;;;;;;;;;;;;;;;;5014293;28;20279;-47
2022/03/23 14:59:15;;;;;;;;;;;;;;;;;;5013729;28;19928;-48
2022/03/23 15:01:41;;;;;;;;;;;;;;;;;;5013609;28;19942;-47
2022/03/23 15:04:07;;;;;;;;;;;;;;;;;;5013722;28;19917;-47
2022/03/23 15:15:06;;;;;;;;;;;;;;;;;;5002033;28;19931;-47
2022/03/23 15:17:33;;;;;;;;;;;;;;;;;;5013586;28;19905;-47
2022/03/23 15:19:59;;;;;;;;;;;;;;;;;;5013603;28;19928;-46
2022/03/23 15:22:25;;;;;;;;;;;;;;;;;;5013532;28;19912;-47
2022/03/23 15:24:51;;;;;;;;;;;;;;;;;;5013422;28;20368;-47
2022/03/23 15:27:17;;;;;;;;;;;;;;;;;;5013472;28;19911;-47
2022/03/23 15:29:43;;;;;;;;;;;;;;;;;;5013294;28;19912;-47
2022/03/23 15:32:09;;;;;;;;;;;;;;;;;;5013220;28;19905;-47
2022/03/23 15:34:35;;;;;;;;;;;;;;;;;;5013347;28;19906;-48
2022/03/23 15:37:01;;;;;;;;;;;;;;;;;;5013263;28;20394;-46
2022/03/23 15:39:29;;;;;;;;;;;;;;;;;;5013265;28;19909;-46
2022/03/23 15:41:56;;;;;;;;;;;;;;;;;;5013170;28;20158;-47
2022/03/23 15:44:22;;;;;;;;;;;;;;;;;;5013163;28;20275;-47
2022/03/23 15:46:49;;;;;;;;;;;;;;;;;;5013078;28;19952;-46
2022/03/23 15:49:16;;;;;;;;;;;;;;;;;;4995513;28;19912;-47
2022/03/23 15:51:41;;;;;;;;;;;;;;;;;;5012900;28;19940;-46
2022/03/23 15:54:07;;;;;;;;;;;;;;;;;;5012981;28;19960;-47
2022/03/23 15:56:33;;;;;;;;;;;;;;;;;;5013196;28;20375;-49
2022/03/23 15:58:59;;;;;;;;;;;;;;;;;;5012959;28;19959;-48
2022/03/23 16:01:26;;;;;;;;;;;;;;;;;;5012843;28;19928;-49
2022/03/23 16:03:52;;;;;;;;;;;;;;;;;;4994847;28;19924;-48
2022/03/23 16:06:18;;;;;;;;;;;;;;;;;;5013067;28;19912;-49
2022/03/23 16:08:44;;;;;;;;;;;;;;;;;;5013169;28;19909;-50
2022/03/23 16:11:10;;;;;;;;;;;;;;;;;;5013404;28;20382;-50
2022/03/23 16:13:36;;;;;;;;;;;;;;;;;;5013406;28;20040;-50
2022/03/23 16:16:02;;;;;;;;;;;;;;;;;;5012975;28;19905;-50
2022/03/23 16:18:28;;;;;;;;;;;;;;;;;;4994692;28;19984;-49
2022/03/23 16:20:54;;;;;;;;;;;;;;;;;;5012896;28;19939;-51
2022/03/23 16:23:20;;;;;;;;;;;;;;;;;;5012995;28;19917;-49
2022/03/23 16:25:46;;;;;;;;;;;;;;;;;;5013477;28;19912;-49
2022/03/23 16:28:12;;;;;;;;;;;;;;;;;;5013090;28;19906;-50
2022/03/23 16:30:38;;;;;;;;;;;;;;;;;;5013070;28;19959;-49
2022/03/23 16:33:07;;;;;;;;;;;;;;;;;;5012831;28;20435;-48
2022/03/23 16:35:34;;;;;;;;;;;;;;;;;;5012820;28;19906;-50
2022/03/23 16:38:00;;;;;;;;;;;;;;;;;;5012803;28;19909;-50
2022/03/23 16:40:26;;;;;;;;;;;;;;;;;;5012990;28;19971;-48
2022/03/23 16:42:57;;;;;;;;;;;;;;;;;;5012686;28;20369;-49
2022/03/23 16:45:23;;;;;;;;;;;;;;;;;;5012504;28;19937;-48
2022/03/23 16:47:49;;;;;;;;;;;;;;;;;;5012436;28;19949;-50
2022/03/23 16:50:15;;;;;;;;;;;;;;;;;;5012416;28;19905;-48
2022/03/23 16:52:42;;;;;;;;;;;;;;;;;;5012617;28;19952;-48
2022/03/23 16:55:08;;;;;;;;;;;;;;;;;;5012393;28;19976;-49
2022/03/23 16:57:34;;;;;;;;;;;;;;;;;;5012357;28;19909;-49
2022/03/23 17:00:00;;;;;;;;;;;;;;;;;;5012342;28;19916;-49
2022/03/23 17:02:26;;;;;;;;;;;;;;;;;;5012079;28;19939;-48
2022/03/23 17:13:06;;;;;;;;;;;;;;;;;;5012237;28;19912;-48
2022/03/23 17:15:33;;;;;;;;;;;;;;;;;;5012198;28;19906;-49
2022/03/23 17:17:59;;;;;;;;;;;;;;;;;;5012353;28;19914;-49
2022/03/23 17:20:25;;;;;;;;;;;;;;;;;;5012072;28;20279;-48
2022/03/23 17:22:51;;;;;;;;;;;;;;;;;;5012287;28;19913;-49
2022/03/23 17:25:17;;;;;;;;;;;;;;;;;;5012320;28;20364;-49
2022/03/23 17:27:43;;;;;;;;;;;;;;;;;;5012500;28;19906;-51
2022/03/23 17:30:09;;;;;;;;;;;;;;;;;;5014296;28;19911;-49